sensor_id;sensor_type;location;lat;lon;timestamp;temperature;humidity
16247;DHT22;8231;50.866;7.944;2022-07-01T00:01:21;15.30;99.90
16247;DHT22;8231;50.866;7.944;2022-07-01T00:03:49;15.30;99.90
16247;DHT22;8231;50.866;7.944;2022-07-01T00:06:17;15.20;99.90
16247;DHT22;8231;50.866;7.944;2022-07-01T00:08:46;15.20;99.90
16247;DHT22;8231;50.866;7.944;2022-07-01T00:11:14;15.20;99.90
16247;DHT22;8231;50.866;7.944;2022-07-01T00:13:42;15.30;99.90
16247;DHT22;8231;50.866;7.944;2022-07-01T00:16:12;15.20;99.90
16247;DHT22;8231;50.866;7.944;2022-07-01T00:18:40;15.20;99.90
16247;DHT22;8231;50.866;7.944;2022-07-01T00:21:09;15.10;99.90
16247;DHT22;8231;50.866;7.944;2022-07-01T00:23:40;14.90;99.90
16247;DHT22;8231;50.866;7.944;2022-07-01T00:26:08;15.00;99.90
16247;DHT22;8231;50.866;7.944;2022-07-01T00:28:37;14.90;99.90
16247;DHT22;8231;50.866;7.944;2022-07-01T00:31:05;15.00;99.90
16247;DHT22;8231;50.866;7.944;2022-07-01T00:33:34;15.00;99.90
16247;DHT22;8231;50.866;7.944;2022-07-01T00:36:02;15.00;99.90
16247;DHT22;8231;50.866;7.944;2022-07-01T00:38:31;15.00;99.90
16247;DHT22;8231;50.866;7.944;2022-07-01T00:40:59;15.10;99.90
16247;DHT22;8231;50.866;7.944;2022-07-01T00:43:27;15.00;99.90
16247;DHT22;8231;50.866;7.944;2022-07-01T00:46:16;15.10;99.90
16247;DHT22;8231;50.866;7.944;2022-07-01T00:48:50;15.00;99.90
16247;DHT22;8231;50.866;7.944;2022-07-01T00:51:19;15.00;99.90
16247;DHT22;8231;50.866;7.944;2022-07-01T00:53:47;15.00;99.90
16247;DHT22;8231;50.866;7.944;2022-07-01T00:56:16;14.90;99.90
16247;DHT22;8231;50.866;7.944;2022-07-01T00:58:45;15.00;99.90
16247;DHT22;8231;50.866;7.944;2022-07-01T01:01:13;15.00;99.90
16247;DHT22;8231;50.866;7.944;2022-07-01T01:03:41;14.90;99.90
16247;DHT22;8231;50.866;7.944;2022-07-01T01:06:11;14.90;99.90
16247;DHT22;8231;50.866;7.944;2022-07-01T01:08:40;14.90;99.90
16247;DHT22;8231;50.866;7.944;2022-07-01T01:11:08;14.90;99.90
16247;DHT22;8231;50.866;7.944;2022-07-01T01:13:36;14.90;99.90
16247;DHT22;8231;50.866;7.944;2022-07-01T01:16:05;14.90;99.90
16247;DHT22;8231;50.866;7.944;2022-07-01T01:18:34;14.90;99.90
16247;DHT22;8231;50.866;7.944;2022-07-01T01:21:04;14.90;99.90
16247;DHT22;8231;50.866;7.944;2022-07-01T01:23:32;14.90;99.90
16247;DHT22;8231;50.866;7.944;2022-07-01T01:26:00;14.90;99.90
16247;DHT22;8231;50.866;7.944;2022-07-01T01:28:29;14.90;99.90
16247;DHT22;8231;50.866;7.944;2022-07-01T01:30:57;14.90;99.90
16247;DHT22;8231;50.866;7.944;2022-07-01T01:33:25;14.80;99.90
16247;DHT22;8231;50.866;7.944;2022-07-01T01:35:53;14.90;99.90
16247;DHT22;8231;50.866;7.944;2022-07-01T01:38:23;14.90;99.90
16247;DHT22;8231;50.866;7.944;2022-07-01T01:40:51;14.90;99.90
16247;DHT22;8231;50.866;7.944;2022-07-01T01:43:19;14.90;99.90
16247;DHT22;8231;50.866;7.944;2022-07-01T01:45:47;14.90;99.90
16247;DHT22;8231;50.866;7.944;2022-07-01T01:48:15;14.80;99.90
16247;DHT22;8231;50.866;7.944;2022-07-01T01:50:43;14.80;99.90
16247;DHT22;8231;50.866;7.944;2022-07-01T01:53:11;14.80;99.90
16247;DHT22;8231;50.866;7.944;2022-07-01T01:55:41;14.80;99.90
16247;DHT22;8231;50.866;7.944;2022-07-01T01:58:09;14.80;99.90
16247;DHT22;8231;50.866;7.944;2022-07-01T02:00:37;14.80;99.90
16247;DHT22;8231;50.866;7.944;2022-07-01T02:03:05;14.80;99.90
16247;DHT22;8231;50.866;7.944;2022-07-01T02:05:34;14.80;99.90
16247;DHT22;8231;50.866;7.944;2022-07-01T02:08:03;14.70;99.90
16247;DHT22;8231;50.866;7.944;2022-07-01T02:10:31;14.70;99.90
16247;DHT22;8231;50.866;7.944;2022-07-01T02:13:01;14.70;99.90
16247;DHT22;8231;50.866;7.944;2022-07-01T02:15:29;14.70;99.90
16247;DHT22;8231;50.866;7.944;2022-07-01T02:17:57;14.70;99.90
16247;DHT22;8231;50.866;7.944;2022-07-01T02:20:25;14.70;99.90
16247;DHT22;8231;50.866;7.944;2022-07-01T02:22:53;14.70;99.90
16247;DHT22;8231;50.866;7.944;2022-07-01T02:25:21;14.70;99.90
16247;DHT22;8231;50.866;7.944;2022-07-01T02:27:49;14.70;99.90
16247;DHT22;8231;50.866;7.944;2022-07-01T02:30:19;14.70;99.90
16247;DHT22;8231;50.866;7.944;2022-07-01T02:32:47;14.70;99.90
16247;DHT22;8231;50.866;7.944;2022-07-01T02:35:15;14.70;99.90
16247;DHT22;8231;50.866;7.944;2022-07-01T02:37:43;14.70;99.90
16247;DHT22;8231;50.866;7.944;2022-07-01T02:40:11;14.70;99.90
16247;DHT22;8231;50.866;7.944;2022-07-01T02:42:40;14.70;99.90
16247;DHT22;8231;50.866;7.944;2022-07-01T02:45:08;14.70;99.90
16247;DHT22;8231;50.866;7.944;2022-07-01T02:47:39;14.70;99.90
16247;DHT22;8231;50.866;7.944;2022-07-01T02:50:09;14.70;99.90
16247;DHT22;8231;50.866;7.944;2022-07-01T02:52:39;14.70;99.90
16247;DHT22;8231;50.866;7.944;2022-07-01T02:55:09;14.70;99.90
16247;DHT22;8231;50.866;7.944;2022-07-01T02:57:39;14.70;99.90
16247;DHT22;8231;50.866;7.944;2022-07-01T03:00:08;14.70;99.90
16247;DHT22;8231;50.866;7.944;2022-07-01T03:02:39;14.70;99.90
16247;DHT22;8231;50.866;7.944;2022-07-01T03:05:08;14.60;99.90
16247;DHT22;8231;50.866;7.944;2022-07-01T03:07:37;14.60;99.90
16247;DHT22;8231;50.866;7.944;2022-07-01T03:10:07;14.60;99.90
16247;DHT22;8231;50.866;7.944;2022-07-01T03:12:35;14.60;99.90
16247;DHT22;8231;50.866;7.944;2022-07-01T03:15:07;14.60;99.90
16247;DHT22;8231;50.866;7.944;2022-07-01T03:17:37;14.60;99.90
16247;DHT22;8231;50.866;7.944;2022-07-01T03:20:08;14.60;99.90
16247;DHT22;8231;50.866;7.944;2022-07-01T03:22:37;14.60;99.90
16247;DHT22;8231;50.866;7.944;2022-07-01T03:25:07;14.50;99.90
16247;DHT22;8231;50.866;7.944;2022-07-01T03:27:35;14.50;99.90
16247;DHT22;8231;50.866;7.944;2022-07-01T03:30:05;14.50;99.90
16247;DHT22;8231;50.866;7.944;2022-07-01T03:32:34;14.50;99.90
16247;DHT22;8231;50.866;7.944;2022-07-01T03:35:02;14.50;99.90
16247;DHT22;8231;50.866;7.944;2022-07-01T03:37:52;14.50;99.90
16247;DHT22;8231;50.866;7.944;2022-07-01T03:40:20;14.40;99.90
16247;DHT22;8231;50.866;7.944;2022-07-01T03:42:48;14.40;99.90
16247;DHT22;8231;50.866;7.944;2022-07-01T03:45:16;14.40;99.90
16247;DHT22;8231;50.866;7.944;2022-07-01T03:47:48;14.40;99.90
16247;DHT22;8231;50.866;7.944;2022-07-01T03:50:16;14.40;99.90
16247;DHT22;8231;50.866;7.944;2022-07-01T03:52:44;14.50;99.90
16247;DHT22;8231;50.866;7.944;2022-07-01T03:55:14;14.60;99.90
16247;DHT22;8231;50.866;7.944;2022-07-01T03:57:43;14.40;99.90
16247;DHT22;8231;50.866;7.944;2022-07-01T04:00:12;14.40;99.90
16247;DHT22;8231;50.866;7.944;2022-07-01T04:02:46;14.30;99.90
16247;DHT22;8231;50.866;7.944;2022-07-01T04:05:16;14.30;99.90
16247;DHT22;8231;50.866;7.944;2022-07-01T04:07:44;14.40;99.90
16247;DHT22;8231;50.866;7.944;2022-07-01T04:10:13;14.30;99.90
16247;DHT22;8231;50.866;7.944;2022-07-01T04:12:42;14.30;99.90
16247;DHT22;8231;50.866;7.944;2022-07-01T04:15:18;14.20;99.90
16247;DHT22;8231;50.866;7.944;2022-07-01T04:17:46;14.20;99.90
16247;DHT22;8231;50.866;7.944;2022-07-01T04:20:15;14.20;99.90
16247;DHT22;8231;50.866;7.944;2022-07-01T04:22:43;14.30;99.90
16247;DHT22;8231;50.866;7.944;2022-07-01T04:25:10;14.30;99.90
16247;DHT22;8231;50.866;7.944;2022-07-01T04:27:39;14.30;99.90
16247;DHT22;8231;50.866;7.944;2022-07-01T04:30:08;14.30;99.90
16247;DHT22;8231;50.866;7.944;2022-07-01T04:32:36;14.30;99.90
16247;DHT22;8231;50.866;7.944;2022-07-01T04:35:05;14.30;99.90
16247;DHT22;8231;50.866;7.944;2022-07-01T04:37:33;14.40;99.90
16247;DHT22;8231;50.866;7.944;2022-07-01T04:40:01;14.40;99.90
16247;DHT22;8231;50.866;7.944;2022-07-01T04:42:29;14.40;99.90
16247;DHT22;8231;50.866;7.944;2022-07-01T04:44:58;14.40;99.90
16247;DHT22;8231;50.866;7.944;2022-07-01T04:47:26;14.40;99.90
16247;DHT22;8231;50.866;7.944;2022-07-01T04:49:59;14.50;99.90
16247;DHT22;8231;50.866;7.944;2022-07-01T04:52:28;14.50;99.90
16247;DHT22;8231;50.866;7.944;2022-07-01T04:54:56;14.50;99.90
16247;DHT22;8231;50.866;7.944;2022-07-01T04:57:32;14.50;99.90
16247;DHT22;8231;50.866;7.944;2022-07-01T05:00:03;14.50;99.90
16247;DHT22;8231;50.866;7.944;2022-07-01T05:02:31;14.50;99.90
16247;DHT22;8231;50.866;7.944;2022-07-01T05:04:59;14.50;99.90
16247;DHT22;8231;50.866;7.944;2022-07-01T05:07:27;14.60;99.90
16247;DHT22;8231;50.866;7.944;2022-07-01T05:09:56;14.60;99.90
16247;DHT22;8231;50.866;7.944;2022-07-01T05:12:25;14.50;99.90
16247;DHT22;8231;50.866;7.944;2022-07-01T05:14:53;14.50;99.90
16247;DHT22;8231;50.866;7.944;2022-07-01T05:17:23;14.60;99.90
16247;DHT22;8231;50.866;7.944;2022-07-01T05:20:12;14.60;99.90
16247;DHT22;8231;50.866;7.944;2022-07-01T05:22:57;14.70;99.90
16247;DHT22;8231;50.866;7.944;2022-07-01T05:25:25;14.70;99.90
16247;DHT22;8231;50.866;7.944;2022-07-01T05:27:53;14.80;99.90
16247;DHT22;8231;50.866;7.944;2022-07-01T05:30:22;14.80;99.90
16247;DHT22;8231;50.866;7.944;2022-07-01T05:32:51;14.80;99.90
16247;DHT22;8231;50.866;7.944;2022-07-01T05:35:19;14.80;99.90
16247;DHT22;8231;50.866;7.944;2022-07-01T05:37:47;14.80;99.90
16247;DHT22;8231;50.866;7.944;2022-07-01T05:40:15;14.70;99.90
16247;DHT22;8231;50.866;7.944;2022-07-01T05:42:43;14.60;99.90
16247;DHT22;8231;50.866;7.944;2022-07-01T05:45:11;14.60;99.90
16247;DHT22;8231;50.866;7.944;2022-07-01T05:47:39;14.60;99.90
16247;DHT22;8231;50.866;7.944;2022-07-01T05:50:09;14.60;99.90
16247;DHT22;8231;50.866;7.944;2022-07-01T05:52:37;14.60;99.90
16247;DHT22;8231;50.866;7.944;2022-07-01T05:55:06;14.50;99.90
16247;DHT22;8231;50.866;7.944;2022-07-01T05:57:35;14.60;99.90
16247;DHT22;8231;50.866;7.944;2022-07-01T06:00:03;14.60;99.90
16247;DHT22;8231;50.866;7.944;2022-07-01T06:02:37;14.60;99.90
16247;DHT22;8231;50.866;7.944;2022-07-01T06:05:06;14.60;99.90
16247;DHT22;8231;50.866;7.944;2022-07-01T06:07:35;14.70;99.90
16247;DHT22;8231;50.866;7.944;2022-07-01T06:10:04;14.70;99.90
16247;DHT22;8231;50.866;7.944;2022-07-01T06:12:32;14.70;99.90
16247;DHT22;8231;50.866;7.944;2022-07-01T06:15:01;14.70;99.90
16247;DHT22;8231;50.866;7.944;2022-07-01T06:17:29;14.80;99.90
16247;DHT22;8231;50.866;7.944;2022-07-01T06:19:57;14.90;99.90
16247;DHT22;8231;50.866;7.944;2022-07-01T06:22:26;15.10;99.90
16247;DHT22;8231;50.866;7.944;2022-07-01T06:24:55;15.20;99.90
16247;DHT22;8231;50.866;7.944;2022-07-01T06:27:23;15.30;99.90
16247;DHT22;8231;50.866;7.944;2022-07-01T06:29:51;15.40;99.90
16247;DHT22;8231;50.866;7.944;2022-07-01T06:32:20;15.50;99.90
16247;DHT22;8231;50.866;7.944;2022-07-01T06:34:48;15.60;99.90
16247;DHT22;8231;50.866;7.944;2022-07-01T06:37:16;15.60;99.90
16247;DHT22;8231;50.866;7.944;2022-07-01T06:39:47;15.70;99.90
16247;DHT22;8231;50.866;7.944;2022-07-01T06:42:16;15.70;99.90
16247;DHT22;8231;50.866;7.944;2022-07-01T06:44:44;15.60;99.90
16247;DHT22;8231;50.866;7.944;2022-07-01T06:47:12;15.70;99.90
16247;DHT22;8231;50.866;7.944;2022-07-01T06:49:41;15.90;99.90
16247;DHT22;8231;50.866;7.944;2022-07-01T06:52:09;16.00;99.90
16247;DHT22;8231;50.866;7.944;2022-07-01T06:54:37;15.90;99.90
16247;DHT22;8231;50.866;7.944;2022-07-01T06:57:07;16.00;99.90
16247;DHT22;8231;50.866;7.944;2022-07-01T06:59:36;16.10;99.90
16247;DHT22;8231;50.866;7.944;2022-07-01T07:02:04;16.10;99.90
16247;DHT22;8231;50.866;7.944;2022-07-01T07:04:34;16.10;99.90
16247;DHT22;8231;50.866;7.944;2022-07-01T07:07:22;15.90;99.90
16247;DHT22;8231;50.866;7.944;2022-07-01T07:09:50;15.90;99.90
16247;DHT22;8231;50.866;7.944;2022-07-01T07:12:18;15.90;99.90
16247;DHT22;8231;50.866;7.944;2022-07-01T07:14:48;16.00;99.90
16247;DHT22;8231;50.866;7.944;2022-07-01T07:17:16;16.00;99.90
16247;DHT22;8231;50.866;7.944;2022-07-01T07:19:44;15.80;99.90
16247;DHT22;8231;50.866;7.944;2022-07-01T07:22:12;15.70;99.90
16247;DHT22;8231;50.866;7.944;2022-07-01T07:24:40;15.70;99.90
16247;DHT22;8231;50.866;7.944;2022-07-01T07:27:09;15.80;99.90
16247;DHT22;8231;50.866;7.944;2022-07-01T07:29:37;15.90;99.90
16247;DHT22;8231;50.866;7.944;2022-07-01T07:32:07;15.90;99.90
16247;DHT22;8231;50.866;7.944;2022-07-01T07:34:35;16.20;99.90
16247;DHT22;8231;50.866;7.944;2022-07-01T07:37:04;16.20;99.90
16247;DHT22;8231;50.866;7.944;2022-07-01T07:39:33;16.30;99.90
16247;DHT22;8231;50.866;7.944;2022-07-01T07:42:01;16.30;99.90
16247;DHT22;8231;50.866;7.944;2022-07-01T07:44:30;16.20;99.90
16247;DHT22;8231;50.866;7.944;2022-07-01T07:46:58;16.10;99.90
16247;DHT22;8231;50.866;7.944;2022-07-01T07:49:27;16.00;99.90
16247;DHT22;8231;50.866;7.944;2022-07-01T07:51:56;15.90;99.90
16247;DHT22;8231;50.866;7.944;2022-07-01T07:54:24;16.00;99.90
16247;DHT22;8231;50.866;7.944;2022-07-01T07:56:52;16.00;99.90
16247;DHT22;8231;50.866;7.944;2022-07-01T07:59:20;16.10;99.90
16247;DHT22;8231;50.866;7.944;2022-07-01T08:01:49;16.20;99.90
16247;DHT22;8231;50.866;7.944;2022-07-01T08:04:17;16.10;99.90
16247;DHT22;8231;50.866;7.944;2022-07-01T08:06:47;16.10;99.90
16247;DHT22;8231;50.866;7.944;2022-07-01T08:09:15;16.20;99.90
16247;DHT22;8231;50.866;7.944;2022-07-01T08:11:43;16.20;99.90
16247;DHT22;8231;50.866;7.944;2022-07-01T08:14:11;16.20;99.90
16247;DHT22;8231;50.866;7.944;2022-07-01T08:16:40;16.00;99.90
16247;DHT22;8231;50.866;7.944;2022-07-01T08:19:08;15.90;99.90
16247;DHT22;8231;50.866;7.944;2022-07-01T08:21:36;15.90;99.90
16247;DHT22;8231;50.866;7.944;2022-07-01T08:24:06;16.00;99.90
16247;DHT22;8231;50.866;7.944;2022-07-01T08:26:34;16.10;99.90
16247;DHT22;8231;50.866;7.944;2022-07-01T08:29:02;16.20;99.90
16247;DHT22;8231;50.866;7.944;2022-07-01T08:31:31;16.30;99.90
16247;DHT22;8231;50.866;7.944;2022-07-01T08:33:59;16.30;99.90
16247;DHT22;8231;50.866;7.944;2022-07-01T08:36:29;16.40;99.90
16247;DHT22;8231;50.866;7.944;2022-07-01T08:38:57;16.50;99.90
16247;DHT22;8231;50.866;7.944;2022-07-01T08:41:26;16.60;99.90
16247;DHT22;8231;50.866;7.944;2022-07-01T08:43:54;16.70;99.90
16247;DHT22;8231;50.866;7.944;2022-07-01T08:46:22;16.90;99.90
16247;DHT22;8231;50.866;7.944;2022-07-01T08:48:51;17.20;99.90
16247;DHT22;8231;50.866;7.944;2022-07-01T08:51:19;17.40;99.90
16247;DHT22;8231;50.866;7.944;2022-07-01T08:53:47;17.80;99.90
16247;DHT22;8231;50.866;7.944;2022-07-01T08:56:15;17.90;99.90
16247;DHT22;8231;50.866;7.944;2022-07-01T08:59:02;17.80;99.90
16247;DHT22;8231;50.866;7.944;2022-07-01T09:01:33;17.90;99.90
16247;DHT22;8231;50.866;7.944;2022-07-01T09:04:13;17.90;99.90
16247;DHT22;8231;50.866;7.944;2022-07-01T09:06:42;17.90;99.90
16247;DHT22;8231;50.866;7.944;2022-07-01T09:09:12;17.70;99.90
16247;DHT22;8231;50.866;7.944;2022-07-01T09:11:45;17.40;99.90
16247;DHT22;8231;50.866;7.944;2022-07-01T09:14:15;17.50;99.90
16247;DHT22;8231;50.866;7.944;2022-07-01T09:16:46;17.40;99.90
16247;DHT22;8231;50.866;7.944;2022-07-01T09:19:17;17.50;99.90
16247;DHT22;8231;50.866;7.944;2022-07-01T09:21:47;17.60;99.90
16247;DHT22;8231;50.866;7.944;2022-07-01T09:24:28;17.70;99.90
16247;DHT22;8231;50.866;7.944;2022-07-01T09:26:58;18.00;99.90
16247;DHT22;8231;50.866;7.944;2022-07-01T09:29:29;18.40;99.90
16247;DHT22;8231;50.866;7.944;2022-07-01T09:31:58;18.70;99.90
16247;DHT22;8231;50.866;7.944;2022-07-01T09:34:27;18.90;99.90
16247;DHT22;8231;50.866;7.944;2022-07-01T09:36:59;19.20;99.90
16247;DHT22;8231;50.866;7.944;2022-07-01T09:39:27;19.20;99.90
16247;DHT22;8231;50.866;7.944;2022-07-01T09:42:04;19.10;99.90
16247;DHT22;8231;50.866;7.944;2022-07-01T09:44:34;19.10;99.90
16247;DHT22;8231;50.866;7.944;2022-07-01T09:47:02;19.10;99.90
16247;DHT22;8231;50.866;7.944;2022-07-01T09:49:32;19.00;99.90
16247;DHT22;8231;50.866;7.944;2022-07-01T09:52:00;18.80;99.90
16247;DHT22;8231;50.866;7.944;2022-07-01T09:54:28;18.80;99.90
16247;DHT22;8231;50.866;7.944;2022-07-01T09:56:57;18.40;99.90
16247;DHT22;8231;50.866;7.944;2022-07-01T09:59:25;18.50;99.90
16247;DHT22;8231;50.866;7.944;2022-07-01T10:01:54;18.60;99.90
16247;DHT22;8231;50.866;7.944;2022-07-01T10:04:31;18.70;99.90
16247;DHT22;8231;50.866;7.944;2022-07-01T10:07:13;19.10;99.90
16247;DHT22;8231;50.866;7.944;2022-07-01T10:10:05;19.60;99.90
16247;DHT22;8231;50.866;7.944;2022-07-01T10:12:39;19.70;99.90
16247;DHT22;8231;50.866;7.944;2022-07-01T10:15:10;20.00;99.90
16247;DHT22;8231;50.866;7.944;2022-07-01T10:17:44;20.20;99.90
16247;DHT22;8231;50.866;7.944;2022-07-01T10:20:15;20.50;99.90
16247;DHT22;8231;50.866;7.944;2022-07-01T10:22:50;20.60;99.90
16247;DHT22;8231;50.866;7.944;2022-07-01T10:25:33;20.80;99.90
16247;DHT22;8231;50.866;7.944;2022-07-01T10:28:22;20.90;99.90
16247;DHT22;8231;50.866;7.944;2022-07-01T10:31:00;21.00;99.90
16247;DHT22;8231;50.866;7.944;2022-07-01T10:33:43;21.10;99.90
16247;DHT22;8231;50.866;7.944;2022-07-01T10:36:18;21.40;99.90
16247;DHT22;8231;50.866;7.944;2022-07-01T10:39:15;21.70;99.90
16247;DHT22;8231;50.866;7.944;2022-07-01T10:41:59;21.90;99.90
16247;DHT22;8231;50.866;7.944;2022-07-01T10:45:02;21.90;99.90
16247;DHT22;8231;50.866;7.944;2022-07-01T10:47:31;21.70;99.90
16247;DHT22;8231;50.866;7.944;2022-07-01T10:50:06;21.90;99.90
16247;DHT22;8231;50.866;7.944;2022-07-01T10:52:36;22.10;99.90
16247;DHT22;8231;50.866;7.944;2022-07-01T10:55:07;21.90;99.90
16247;DHT22;8231;50.866;7.944;2022-07-01T10:57:38;22.20;99.90
16247;DHT22;8231;50.866;7.944;2022-07-01T11:00:26;22.50;99.90
16247;DHT22;8231;50.866;7.944;2022-07-01T11:03:22;22.60;99.90
16247;DHT22;8231;50.866;7.944;2022-07-01T11:05:54;22.90;99.90
16247;DHT22;8231;50.866;7.944;2022-07-01T11:08:22;23.20;99.90
16247;DHT22;8231;50.866;7.944;2022-07-01T11:10:58;23.20;99.90
16247;DHT22;8231;50.866;7.944;2022-07-01T11:13:28;23.20;99.90
16247;DHT22;8231;50.866;7.944;2022-07-01T11:15:57;23.20;98.70
16247;DHT22;8231;50.866;7.944;2022-07-01T11:18:25;23.20;99.90
16247;DHT22;8231;50.866;7.944;2022-07-01T11:21:04;23.20;99.90
16247;DHT22;8231;50.866;7.944;2022-07-01T11:23:33;23.50;99.90
16247;DHT22;8231;50.866;7.944;2022-07-01T11:26:06;23.70;99.00
16247;DHT22;8231;50.866;7.944;2022-07-01T11:28:40;23.60;98.00
16247;DHT22;8231;50.866;7.944;2022-07-01T11:31:08;23.40;97.70
16247;DHT22;8231;50.866;7.944;2022-07-01T11:33:37;23.30;97.70
16247;DHT22;8231;50.866;7.944;2022-07-01T11:36:08;23.10;97.00
16247;DHT22;8231;50.866;7.944;2022-07-01T11:38:54;23.40;97.70
16247;DHT22;8231;50.866;7.944;2022-07-01T11:41:40;23.70;97.90
16247;DHT22;8231;50.866;7.944;2022-07-01T11:44:08;24.10;96.90
16247;DHT22;8231;50.866;7.944;2022-07-01T11:46:37;23.70;96.90
16247;DHT22;8231;50.866;7.944;2022-07-01T11:49:11;23.20;97.20
16247;DHT22;8231;50.866;7.944;2022-07-01T11:51:42;23.30;96.80
16247;DHT22;8231;50.866;7.944;2022-07-01T11:54:19;23.70;97.40
16247;DHT22;8231;50.866;7.944;2022-07-01T11:56:49;23.70;97.40
16247;DHT22;8231;50.866;7.944;2022-07-01T11:59:18;23.60;97.10
16247;DHT22;8231;50.866;7.944;2022-07-01T12:01:51;23.50;97.20
16247;DHT22;8231;50.866;7.944;2022-07-01T12:04:21;24.00;97.50
16247;DHT22;8231;50.866;7.944;2022-07-01T12:06:50;24.20;96.70
16247;DHT22;8231;50.866;7.944;2022-07-01T12:09:19;24.20;95.70
16247;DHT22;8231;50.866;7.944;2022-07-01T12:11:49;24.20;95.40
16247;DHT22;8231;50.866;7.944;2022-07-01T12:14:21;24.00;96.00
16247;DHT22;8231;50.866;7.944;2022-07-01T12:16:52;24.00;95.60
16247;DHT22;8231;50.866;7.944;2022-07-01T12:19:26;24.40;94.30
16247;DHT22;8231;50.866;7.944;2022-07-01T12:21:57;24.90;91.60
16247;DHT22;8231;50.866;7.944;2022-07-01T12:24:26;24.90;92.30
16247;DHT22;8231;50.866;7.944;2022-07-01T12:27:02;24.70;92.00
16247;DHT22;8231;50.866;7.944;2022-07-01T12:32:16;24.00;91.20
16247;DHT22;8231;50.866;7.944;2022-07-01T12:34:47;23.60;92.10
16247;DHT22;8231;50.866;7.944;2022-07-01T12:37:19;24.30;92.10
16247;DHT22;8231;50.866;7.944;2022-07-01T12:39:49;25.40;91.10
16247;DHT22;8231;50.866;7.944;2022-07-01T12:42:26;26.20;87.10
16247;DHT22;8231;50.866;7.944;2022-07-01T12:44:57;26.00;81.00
16247;DHT22;8231;50.866;7.944;2022-07-01T12:47:27;25.50;84.40
16247;DHT22;8231;50.866;7.944;2022-07-01T12:50:12;24.90;84.60
16247;DHT22;8231;50.866;7.944;2022-07-01T12:52:55;24.00;82.90
16247;DHT22;8231;50.866;7.944;2022-07-01T12:55:24;23.90;86.00
16247;DHT22;8231;50.866;7.944;2022-07-01T12:57:53;24.20;90.10
16247;DHT22;8231;50.866;7.944;2022-07-01T13:00:23;24.30;84.30
16247;DHT22;8231;50.866;7.944;2022-07-01T13:02:54;24.30;86.70
16247;DHT22;8231;50.866;7.944;2022-07-01T13:05:23;24.40;88.90
16247;DHT22;8231;50.866;7.944;2022-07-01T13:07:53;24.70;87.90
16247;DHT22;8231;50.866;7.944;2022-07-01T13:10:21;24.70;87.70
16247;DHT22;8231;50.866;7.944;2022-07-01T13:12:50;24.90;85.90
16247;DHT22;8231;50.866;7.944;2022-07-01T13:15:19;25.00;86.90
16247;DHT22;8231;50.866;7.944;2022-07-01T13:17:48;24.60;85.40
16247;DHT22;8231;50.866;7.944;2022-07-01T13:20:16;24.50;87.80
16247;DHT22;8231;50.866;7.944;2022-07-01T13:22:45;24.50;86.60
16247;DHT22;8231;50.866;7.944;2022-07-01T13:25:14;24.50;84.20
16247;DHT22;8231;50.866;7.944;2022-07-01T13:27:43;24.50;88.20
16247;DHT22;8231;50.866;7.944;2022-07-01T13:30:12;24.50;86.30
16247;DHT22;8231;50.866;7.944;2022-07-01T13:32:40;24.60;83.80
16247;DHT22;8231;50.866;7.944;2022-07-01T13:35:10;24.60;82.50
16247;DHT22;8231;50.866;7.944;2022-07-01T13:37:39;24.30;86.90
16247;DHT22;8231;50.866;7.944;2022-07-01T13:40:08;24.20;84.70
16247;DHT22;8231;50.866;7.944;2022-07-01T13:42:38;23.90;84.60
16247;DHT22;8231;50.866;7.944;2022-07-01T13:45:07;23.70;87.10
16247;DHT22;8231;50.866;7.944;2022-07-01T13:47:35;23.50;87.10
16247;DHT22;8231;50.866;7.944;2022-07-01T13:50:04;23.60;86.20
16247;DHT22;8231;50.866;7.944;2022-07-01T13:52:32;23.80;87.60
16247;DHT22;8231;50.866;7.944;2022-07-01T13:55:00;23.90;88.80
16247;DHT22;8231;50.866;7.944;2022-07-01T13:57:28;23.80;86.40
16247;DHT22;8231;50.866;7.944;2022-07-01T13:59:58;24.10;84.50
16247;DHT22;8231;50.866;7.944;2022-07-01T14:02:26;24.30;84.60
16247;DHT22;8231;50.866;7.944;2022-07-01T14:04:54;24.50;82.50
16247;DHT22;8231;50.866;7.944;2022-07-01T14:07:22;24.50;80.40
16247;DHT22;8231;50.866;7.944;2022-07-01T14:09:50;24.50;80.30
16247;DHT22;8231;50.866;7.944;2022-07-01T14:12:19;24.30;81.70
16247;DHT22;8231;50.866;7.944;2022-07-01T14:14:55;24.10;78.60
16247;DHT22;8231;50.866;7.944;2022-07-01T14:17:25;24.00;81.80
16247;DHT22;8231;50.866;7.944;2022-07-01T14:19:53;23.70;81.80
16247;DHT22;8231;50.866;7.944;2022-07-01T14:22:23;23.80;82.90
16247;DHT22;8231;50.866;7.944;2022-07-01T14:24:52;23.70;80.50
16247;DHT22;8231;50.866;7.944;2022-07-01T14:27:20;23.60;82.00
16247;DHT22;8231;50.866;7.944;2022-07-01T14:29:48;23.50;80.80
16247;DHT22;8231;50.866;7.944;2022-07-01T14:32:24;23.50;81.30
16247;DHT22;8231;50.866;7.944;2022-07-01T14:34:55;23.40;81.70
16247;DHT22;8231;50.866;7.944;2022-07-01T14:37:25;23.40;82.80
16247;DHT22;8231;50.866;7.944;2022-07-01T14:39:53;23.60;82.10
16247;DHT22;8231;50.866;7.944;2022-07-01T14:42:24;24.00;82.80
16247;DHT22;8231;50.866;7.944;2022-07-01T14:44:52;24.10;80.10
16247;DHT22;8231;50.866;7.944;2022-07-01T14:47:21;24.30;78.80
16247;DHT22;8231;50.866;7.944;2022-07-01T14:49:50;24.40;78.20
16247;DHT22;8231;50.866;7.944;2022-07-01T14:52:21;24.50;78.70
16247;DHT22;8231;50.866;7.944;2022-07-01T14:54:49;24.70;78.30
16247;DHT22;8231;50.866;7.944;2022-07-01T14:57:18;25.00;78.40
16247;DHT22;8231;50.866;7.944;2022-07-01T14:59:47;24.80;77.10
16247;DHT22;8231;50.866;7.944;2022-07-01T15:02:15;24.80;77.80
16247;DHT22;8231;50.866;7.944;2022-07-01T15:04:44;24.90;78.20
16247;DHT22;8231;50.866;7.944;2022-07-01T15:07:14;24.60;78.40
16247;DHT22;8231;50.866;7.944;2022-07-01T15:09:42;24.40;79.00
16247;DHT22;8231;50.866;7.944;2022-07-01T15:12:10;24.10;79.70
16247;DHT22;8231;50.866;7.944;2022-07-01T15:14:39;23.80;81.20
16247;DHT22;8231;50.866;7.944;2022-07-01T15:17:08;23.80;83.00
16247;DHT22;8231;50.866;7.944;2022-07-01T15:19:36;24.00;83.00
16247;DHT22;8231;50.866;7.944;2022-07-01T15:22:06;24.10;82.70
16247;DHT22;8231;50.866;7.944;2022-07-01T15:24:37;24.30;82.30
16247;DHT22;8231;50.866;7.944;2022-07-01T15:27:07;24.40;82.00
16247;DHT22;8231;50.866;7.944;2022-07-01T15:29:36;24.50;81.30
16247;DHT22;8231;50.866;7.944;2022-07-01T15:32:05;24.50;80.20
16247;DHT22;8231;50.866;7.944;2022-07-01T15:34:34;24.20;78.10
16247;DHT22;8231;50.866;7.944;2022-07-01T15:37:03;24.00;79.50
16247;DHT22;8231;50.866;7.944;2022-07-01T15:39:31;23.70;80.70
16247;DHT22;8231;50.866;7.944;2022-07-01T15:42:02;23.50;82.10
16247;DHT22;8231;50.866;7.944;2022-07-01T15:44:31;23.60;81.80
16247;DHT22;8231;50.866;7.944;2022-07-01T15:46:59;23.60;83.30
16247;DHT22;8231;50.866;7.944;2022-07-01T15:49:50;23.60;82.50
16247;DHT22;8231;50.866;7.944;2022-07-01T15:52:18;23.60;83.90
16247;DHT22;8231;50.866;7.944;2022-07-01T15:54:46;23.70;82.50
16247;DHT22;8231;50.866;7.944;2022-07-01T15:57:15;23.60;81.00
16247;DHT22;8231;50.866;7.944;2022-07-01T15:59:44;23.30;80.80
16247;DHT22;8231;50.866;7.944;2022-07-01T16:02:12;23.30;83.20
16247;DHT22;8231;50.866;7.944;2022-07-01T16:04:44;23.20;82.30
16247;DHT22;8231;50.866;7.944;2022-07-01T16:07:14;23.10;85.60